Time;durP1;ratioP1;P1;durP2;ratioP2;P2;SDS_P1;SDS_P2;PMS_P1;PMS_P2;Temp;Humidity;BMP_temperature;BMP_pressure;BME280_temperature;BME280_humidity;BME280_pressure;Samples;Min_cycle;Max_cycle;Signal;HPM_P1;HPM_P2
2022/07/24 00:00:22;;;;;;;8.40;4.10;;;21.40;1.00;;;;;;5046253;28;20247;-74
2022/07/24 00:02:48;;;;;;;6.80;4.30;;;21.30;1.00;;;;;;5052848;28;20216;-74
2022/07/24 00:05:14;;;;;;;7.67;4.30;;;21.30;1.00;;;;;;5054998;28;20719;-74
2022/07/24 00:07:39;;;;;;;8.50;4.47;;;21.30;1.00;;;;;;5040257;28;20187;-74
2022/07/24 00:10:06;;;;;;;4.23;3.80;;;21.30;1.00;;;;;;5044731;28;20182;-74
2022/07/24 00:12:33;;;;;;;4.90;3.87;;;21.20;1.00;;;;;;5051124;28;20185;-74
2022/07/24 00:14:59;;;;;;;8.10;4.30;;;21.20;1.00;;;;;;5054526;28;20459;-74
2022/07/24 00:17:25;;;;;;;6.47;4.37;;;21.10;1.00;;;;;;5053944;28;20816;-74
2022/07/24 00:19:50;;;;;;;8.23;4.50;;;21.10;1.00;;;;;;5044496;28;20182;-77
2022/07/24 00:22:23;;;;;;;7.10;4.57;;;21.00;1.00;;;;;;5044608;28;20185;-76
2022/07/24 00:24:51;;;;;;;5.43;4.30;;;21.00;1.00;;;;;;5054291;28;20182;-77
2022/07/24 00:27:17;;;;;;;7.07;4.20;;;21.00;1.00;;;;;;5048900;28;20464;-77
2022/07/24 00:29:45;;;;;;;10.73;4.20;;;20.90;1.00;;;;;;5034410;28;20478;-77
2022/07/24 00:32:21;;;;;;;7.90;4.13;;;20.80;1.00;;;;;;5047454;28;20209;-77
2022/07/24 00:34:47;;;;;;;4.17;3.77;;;20.80;1.00;;;;;;5046631;28;20776;-75
2022/07/24 00:37:15;;;;;;;4.93;4.23;;;20.80;1.00;;;;;;5043388;28;20436;-74
2022/07/24 00:39:41;;;;;;;6.73;4.20;;;20.80;1.00;;;;;;5054027;28;20250;-74
2022/07/24 00:42:09;;;;;;;11.20;4.23;;;20.70;1.00;;;;;;5047027;28;20516;-74
2022/07/24 00:44:35;;;;;;;6.50;4.20;;;20.70;1.00;;;;;;5048137;28;20608;-74
2022/07/24 00:47:00;;;;;;;4.27;3.93;;;20.70;1.00;;;;;;5053386;28;20455;-74
2022/07/24 00:49:39;;;;;;;7.90;4.47;;;20.70;1.00;;;;;;5041151;28;20193;-76
2022/07/24 00:52:09;;;;;;;7.23;4.10;;;20.60;1.00;;;;;;5034033;28;20616;-74
2022/07/24 00:54:40;;;;;;;4.57;3.77;;;20.60;1.00;;;;;;5036671;28;20805;-74
2022/07/24 00:57:06;;;;;;;5.63;4.30;;;20.60;1.00;;;;;;5053611;28;20437;-74
2022/07/24 00:59:33;;;;;;;7.47;3.90;;;20.60;1.00;;;;;;5050913;28;20448;-74
2022/07/24 01:01:59;;;;;;;6.43;4.00;;;20.60;1.00;;;;;;5044195;28;20181;-74
2022/07/24 01:04:25;;;;;;;5.60;3.80;;;20.60;1.00;;;;;;5046120;28;20401;-74
2022/07/24 01:07:04;;;;;;;4.23;3.93;;;20.60;1.00;;;;;;5053805;28;20231;-77
2022/07/24 01:09:45;;;;;;;6.67;3.87;;;20.60;1.00;;;;;;5039924;28;20268;-77
2022/07/24 01:12:15;;;;;;;6.03;3.63;;;20.70;1.00;;;;;;5036463;28;20420;-77
2022/07/24 01:14:41;;;;;;;4.00;3.60;;;20.70;1.00;;;;;;5048359;28;20437;-78
2022/07/24 01:17:29;;;;;;;5.13;3.23;;;20.70;1.00;;;;;;5044360;28;20435;-77
2022/07/24 01:19:55;;;;;;;24.43;4.67;;;20.80;1.00;;;;;;5053632;28;20710;-74
2022/07/24 01:22:21;;;;;;;6.17;4.10;;;20.80;1.00;;;;;;5053247;28;20484;-74
2022/07/24 01:24:57;;;;;;;9.67;4.30;;;20.80;1.00;;;;;;5042923;28;20260;-74
2022/07/24 01:27:24;;;;;;;4.40;3.97;;;20.80;1.00;;;;;;5050291;28;20548;-74
2022/07/24 01:29:51;;;;;;;8.80;4.43;;;20.80;1.00;;;;;;5041534;28;20405;-74
2022/07/24 01:32:17;;;;;;;7.30;3.97;;;20.70;1.00;;;;;;5032092;28;20437;-74
2022/07/24 01:34:43;;;;;;;6.03;3.93;;;20.70;1.00;;;;;;5045084;28;20443;-74
2022/07/24 01:37:10;;;;;;;5.20;4.10;;;20.60;1.00;;;;;;5053370;28;20200;-77
2022/07/24 01:39:57;;;;;;;4.57;4.17;;;20.60;1.00;;;;;;5045899;28;20434;-77
2022/07/24 01:45:45;;;;;;;8.80;4.20;;;20.50;1.00;;;;;;5043749;28;21056;-77
2022/07/24 01:48:16;;;;;;;7.57;4.20;;;20.40;1.00;;;;;;5056856;28;20430;-78
2022/07/24 01:50:42;;;;;;;4.40;4.00;;;20.40;1.00;;;;;;5057572;28;20952;-74
2022/07/24 01:53:07;;;;;;;10.10;4.60;;;20.40;1.00;;;;;;5043850;28;20423;-74
2022/07/24 01:55:33;;;;;;;6.57;4.63;;;20.30;1.00;;;;;;5056975;28;20173;-74
2022/07/24 01:57:59;;;;;;;6.40;4.67;;;20.30;1.00;;;;;;5056924;28;20269;-74
2022/07/24 02:00:25;;;;;;;4.80;3.90;;;20.20;1.00;;;;;;5049099;28;20188;-74
2022/07/24 02:02:51;;;;;;;7.83;4.90;;;20.20;1.00;;;;;;5043290;28;20842;-74
2022/07/24 02:05:17;;;;;;;6.87;4.60;;;20.10;1.00;;;;;;5050471;28;20192;-74
2022/07/24 02:07:44;;;;;;;5.17;4.53;;;20.00;1.00;;;;;;5054356;28;20431;-74
2022/07/24 02:10:21;;;;;;;5.93;4.20;;;20.00;1.00;;;;;;5037129;28;20420;-74
2022/07/24 02:12:47;;;;;;;5.50;4.50;;;19.90;1.00;;;;;;5049626;28;20462;-75
2022/07/24 02:15:15;;;;;;;9.10;4.40;;;19.80;1.00;;;;;;5035717;28;20529;-74
2022/07/24 02:17:55;;;;;;;5.77;4.37;;;19.80;1.00;;;;;;5055316;28;20222;-74
2022/07/24 02:20:29;;;;;;;6.10;4.60;;;19.70;1.00;;;;;;5043606;28;20856;-77
2022/07/24 02:22:54;;;;;;;11.33;6.60;;;19.70;1.00;;;;;;5056804;28;20413;-77
2022/07/24 02:25:33;;;;;;;14.37;6.60;;;19.60;1.00;;;;;;5041540;28;20429;-77
2022/07/24 02:28:39;;;;;;;6.80;5.10;;;19.50;1.00;;;;;;5046955;28;20772;-77
2022/07/24 02:31:05;;;;;;;6.47;4.30;;;19.40;1.00;;;;;;5045494;28;20417;-77
2022/07/24 02:33:30;;;;;;;4.90;4.37;;;19.40;1.00;;;;;;5043032;28;20469;-77
2022/07/24 02:35:57;;;;;;;5.87;3.90;;;19.30;1.00;;;;;;5048257;28;20203;-75
2022/07/24 02:38:27;;;;;;;5.10;4.60;;;19.30;1.00;;;;;;5044009;28;20194;-74
2022/07/24 02:40:53;;;;;;;10.17;5.17;;;19.30;1.00;;;;;;5047168;28;20419;-74
2022/07/24 02:43:19;;;;;;;7.90;4.17;;;19.20;1.00;;;;;;5052358;28;20440;-74
2022/07/24 02:45:44;;;;;;;6.30;4.70;;;19.20;1.00;;;;;;5056261;28;20594;-75
2022/07/24 02:48:10;;;;;;;5.33;4.07;;;19.10;1.00;;;;;;5052439;28;20270;-74
2022/07/24 02:50:36;;;;;;;6.93;4.30;;;19.10;1.00;;;;;;5056598;28;20213;-75
2022/07/24 02:53:02;;;;;;;6.83;4.47;;;19.10;1.00;;;;;;5053167;28;20211;-75
2022/07/24 02:55:39;;;;;;;6.43;4.77;;;19.10;1.00;;;;;;5046079;28;20522;-75
2022/07/24 02:58:05;;;;;;;5.93;4.87;;;19.10;1.00;;;;;;5049198;28;20222;-74
2022/07/24 03:00:31;;;;;;;6.10;4.30;;;19.20;1.00;;;;;;5048973;28;20508;-74
2022/07/24 03:02:58;;;;;;;7.90;4.37;;;19.20;1.00;;;;;;5039364;28;20200;-74
2022/07/24 03:05:51;;;;;;;4.90;4.07;;;19.30;1.00;;;;;;5041983;28;20222;-74
2022/07/24 03:08:27;;;;;;;5.40;4.10;;;19.30;1.00;;;;;;5039548;28;20457;-77
2022/07/24 03:11:03;;;;;;;6.80;4.20;;;19.30;1.00;;;;;;5049201;28;20422;-77
2022/07/24 03:13:45;;;;;;;4.80;4.20;;;19.40;1.00;;;;;;5046817;28;20834;-77
2022/07/24 03:16:11;;;;;;;6.87;3.97;;;19.40;1.00;;;;;;5049154;28;20417;-77
2022/07/24 03:18:41;;;;;;;4.77;3.80;;;19.50;1.00;;;;;;5047585;28;20452;-77
2022/07/24 03:21:09;;;;;;;7.20;3.83;;;19.50;1.00;;;;;;5042963;28;20179;-74
2022/07/24 03:23:35;;;;;;;6.53;4.00;;;19.50;1.00;;;;;;5041770;28;20431;-75
2022/07/24 03:26:01;;;;;;;4.87;3.63;;;19.50;1.00;;;;;;5042765;28;20472;-74
2022/07/24 03:28:27;;;;;;;5.10;4.33;;;19.50;1.00;;;;;;5051087;28;20208;-75
2022/07/24 03:31:03;;;;;;;4.37;3.60;;;19.60;1.00;;;;;;5041293;28;20206;-74
2022/07/24 03:33:33;;;;;;;7.50;4.00;;;19.60;1.00;;;;;;5053461;28;20491;-74
2022/07/24 03:36:03;;;;;;;5.50;4.10;;;19.60;1.00;;;;;;5044942;28;20584;-75
2022/07/24 03:38:29;;;;;;;4.83;3.80;;;19.70;1.00;;;;;;5055042;28;20483;-74
2022/07/24 03:40:57;;;;;;;7.67;3.83;;;19.70;1.00;;;;;;5055223;28;20490;-75
2022/07/24 03:43:23;;;;;;;5.83;3.50;;;19.70;1.00;;;;;;5041993;28;20194;-74
2022/07/24 03:45:51;;;;;;;6.63;4.30;;;19.80;1.00;;;;;;5045106;28;20454;-75
2022/07/24 03:48:17;;;;;;;3.83;3.43;;;19.80;1.00;;;;;;5051827;28;20191;-74
2022/07/24 03:50:43;;;;;;;6.60;3.63;;;19.80;1.00;;;;;;5055066;28;20407;-75
2022/07/24 03:53:08;;;;;;;7.43;4.10;;;19.90;1.00;;;;;;5040315;28;20191;-74
2022/07/24 03:55:51;;;;;;;4.63;4.10;;;19.90;1.00;;;;;;5044296;28;20250;-75
2022/07/24 03:58:21;;;;;;;6.90;4.13;;;19.90;1.00;;;;;;5035619;28;20191;-75
2022/07/24 04:00:47;;;;;;;4.37;3.77;;;19.90;1.00;;;;;;5041698;28;20433;-75
2022/07/24 04:03:28;;;;;;;4.03;3.63;;;19.90;1.00;;;;;;5035141;28;20455;-82
2022/07/24 04:06:05;;;;;;;5.63;4.40;;;19.90;1.00;;;;;;5050463;28;20710;-82
2022/07/24 04:08:57;;;;;;;4.40;4.00;;;19.90;1.00;;;;;;5052195;28;20434;-79
2022/07/24 04:11:27;;;;;;;4.13;3.80;;;19.90;1.00;;;;;;5041670;28;20410;-79
2022/07/24 04:14:03;;;;;;;4.30;3.93;;;20.00;1.00;;;;;;5053860;28;20398;-79
2022/07/24 04:16:39;;;;;;;6.27;4.17;;;19.90;1.00;;;;;;5042178;28;20496;-79
2022/07/24 04:19:27;;;;;;;5.10;3.83;;;20.00;1.00;;;;;;5054265;28;20433;-79
2022/07/24 04:22:27;;;;;;;4.53;4.13;;;20.00;1.00;;;;;;5041790;28;20425;-82
2022/07/24 04:24:57;;;;;;;3.67;3.37;;;20.10;1.00;;;;;;5044767;28;20470;-82
2022/07/24 04:27:27;;;;;;;6.07;4.20;;;20.10;1.00;;;;;;5052903;28;20499;-82
2022/07/24 04:30:04;;;;;;;4.83;3.67;;;20.10;1.00;;;;;;5053141;28;20929;-82
2022/07/24 04:36:21;;;;;;;12.30;3.57;;;20.10;1.00;;;;;;5042981;28;20778;-82
2022/07/24 04:38:57;;;;;;;5.27;3.83;;;20.10;1.00;;;;;;5041629;28;20864;-82
2022/07/24 04:41:27;;;;;;;4.17;3.80;;;20.10;1.00;;;;;;5053829;28;20453;-82
2022/07/24 04:44:21;;;;;;;5.30;3.80;;;20.10;1.00;;;;;;5040842;28;20949;-82
2022/07/24 04:46:51;;;;;;;8.77;3.50;;;20.10;1.00;;;;;;5049559;28;20466;-82
2022/07/24 04:49:57;;;;;;;6.17;3.50;;;20.10;1.00;;;;;;5041661;28;20880;-82
2022/07/24 04:52:23;;;;;;;5.67;4.20;;;20.10;1.00;;;;;;5045667;28;20458;-80
2022/07/24 04:54:57;;;;;;;5.83;3.70;;;20.10;1.00;;;;;;5051840;28;20466;-78
2022/07/24 04:57:27;;;;;;;5.70;3.30;;;20.10;1.00;;;;;;5041594;28;20184;-79
2022/07/24 04:59:57;;;;;;;3.90;3.60;;;20.20;1.00;;;;;;5039339;28;20436;-79
2022/07/24 05:02:28;;;;;;;4.93;3.57;;;20.30;1.00;;;;;;5047129;28;20926;-79
2022/07/24 05:04:57;;;;;;;4.80;3.80;;;20.30;1.00;;;;;;5045211;28;20431;-79
2022/07/24 05:07:27;;;;;;;4.20;3.80;;;20.40;1.00;;;;;;5053468;28;20451;-79
2022/07/24 05:09:57;;;;;;;5.30;3.60;;;20.50;1.00;;;;;;5041382;28;20930;-80
2022/07/24 05:12:27;;;;;;;7.73;3.90;;;20.50;1.00;;;;;;5050994;28;20434;-79
2022/07/24 05:15:27;;;;;;;6.53;4.03;;;20.60;1.00;;;;;;5039866;28;20431;-79
2022/07/24 05:17:57;;;;;;;4.30;3.80;;;20.70;1.00;;;;;;5046149;28;20411;-79
2022/07/24 05:20:28;;;;;;;4.70;3.17;;;20.80;1.00;;;;;;5044676;28;20413;-79
2022/07/24 05:22:58;;;;;;;3.60;3.30;;;20.90;1.00;;;;;;5053912;28;20470;-82
2022/07/24 05:25:27;;;;;;;7.30;3.70;;;20.90;1.00;;;;;;5048377;28;20797;-82
2022/07/24 05:27:57;;;;;;;13.33;3.70;;;21.00;1.00;;;;;;5049518;28;20431;-82
2022/07/24 05:30:27;;;;;;;3.87;3.50;;;21.00;1.00;;;;;;5046545;28;20472;-82
2022/07/24 05:33:21;;;;;;;4.20;3.37;;;21.10;1.00;;;;;;5053601;28;20420;-81
2022/07/24 05:39:27;;;;;;;6.37;3.30;;;21.20;1.00;;;;;;5040786;28;20977;-82
2022/07/24 05:41:57;;;;;;;10.13;3.50;;;21.40;1.00;;;;;;5050676;28;20806;-82
2022/07/24 05:44:27;;;;;;;11.80;3.60;;;21.50;1.00;;;;;;5034511;28;20408;-82
2022/07/24 05:46:58;;;;;;;8.37;3.57;;;21.60;1.00;;;;;;5048268;28;20932;-82
2022/07/24 05:49:28;;;;;;;4.30;3.90;;;21.70;1.00;;;;;;5049072;28;20448;-82
2022/07/24 05:52:21;;;;;;;3.90;3.50;;;21.90;1.00;;;;;;5032273;28;20791;-82
2022/07/24 05:54:57;;;;;;;4.93;3.40;;;22.00;1.00;;;;;;5048821;28;20644;-79
2022/07/24 05:57:51;;;;;;;3.40;3.10;;;22.10;1.00;;;;;;5040785;28;20425;-79
2022/07/24 06:00:20;;;;;;;3.73;3.33;;;22.20;1.00;;;;;;5048467;28;20787;-78
2022/07/24 06:03:09;;;;;;;4.67;3.70;;;22.30;1.00;;;;;;5039217;28;20816;-78
2022/07/24 06:05:39;;;;;;;3.83;3.10;;;22.40;1.00;;;;;;5051461;28;20877;-79
2022/07/24 06:08:09;;;;;;;8.10;4.00;;;22.50;1.00;;;;;;5047303;28;20426;-79
2022/07/24 06:10:40;;;;;;;3.53;3.30;;;22.60;1.00;;;;;;5043693;28;20432;-80
2022/07/24 06:13:05;;;;;;;3.90;3.53;;;22.60;1.00;;;;;;5052801;28;20391;-79
2022/07/24 06:15:33;;;;;;;6.70;2.90;;;22.60;1.00;;;;;;5039598;28;20424;-79
2022/07/24 06:18:21;;;;;;;5.93;3.80;;;22.70;1.00;;;;;;5051491;28;20480;-79
2022/07/24 06:20:47;;;;;;;3.33;3.07;;;22.70;1.00;;;;;;5048224;28;20423;-79
2022/07/24 06:23:27;;;;;;;3.83;2.87;;;22.80;1.00;;;;;;5044474;28;20438;-79
2022/07/24 06:25:53;;;;;;;7.20;3.47;;;22.80;1.00;;;;;;5051543;28;20349;-79
2022/07/24 06:28:21;;;;;;;3.80;3.37;;;22.90;1.00;;;;;;5052843;28;20438;-79
2022/07/24 06:30:51;;;;;;;3.70;3.40;;;23.00;1.00;;;;;;5033000;28;20170;-78
2022/07/24 06:33:17;;;;;;;4.50;3.13;;;23.10;1.00;;;;;;5048801;28;20440;-78
2022/07/24 06:36:21;;;;;;;7.70;3.37;;;23.20;1.00;;;;;;5056512;28;20495;-79
2022/07/24 06:38:47;;;;;;;7.03;4.07;;;23.30;1.00;;;;;;5056809;28;20181;-78
2022/07/24 06:41:15;;;;;;;7.93;3.60;;;23.30;1.00;;;;;;5056413;28;20420;-78
2022/07/24 06:43:45;;;;;;;4.40;3.40;;;23.50;1.00;;;;;;5041825;28;20434;-79
2022/07/24 06:46:21;;;;;;;3.70;3.40;;;23.60;1.00;;;;;;5043157;28;20625;-79
2022/07/24 06:48:57;;;;;;;4.90;3.60;;;23.60;1.00;;;;;;5040139;28;20930;-78
2022/07/24 06:51:51;;;;;;;3.53;3.23;;;23.60;1.00;;;;;;5052676;28;20840;-78
2022/07/24 06:54:27;;;;;;;4.23;3.50;;;23.70;1.00;;;;;;5047982;28;20423;-78
2022/07/24 06:57:27;;;;;;;4.60;3.57;;;23.70;1.00;;;;;;5044203;28;20950;-78
2022/07/24 06:59:58;;;;;;;6.23;3.90;;;23.70;1.00;;;;;;5051997;28;20489;-78
2022/07/24 07:02:27;;;;;;;5.30;4.17;;;23.90;1.00;;;;;;5047084;28;20431;-78
2022/07/24 07:05:15;;;;;;;4.67;3.50;;;23.90;1.00;;;;;;5049044;28;20489;-78
2022/07/24 07:07:46;;;;;;;4.67;3.27;;;24.00;1.00;;;;;;5039756;28;20559;-78
2022/07/24 07:10:57;;;;;;;10.33;4.07;;;24.10;1.00;;;;;;5046049;28;20429;-82
2022/07/24 07:13:23;;;;;;;9.20;3.60;;;24.30;1.00;;;;;;5045944;28;20416;-82
2022/07/24 07:15:57;;;;;;;4.03;3.60;;;24.40;1.00;;;;;;5045191;28;20416;-82
2022/07/24 07:18:27;;;;;;;12.40;3.87;;;24.60;1.00;;;;;;5044583;28;20226;-82
2022/07/24 07:24:15;;;;;;;7.60;3.70;;;24.90;1.00;;;;;;5041303;28;20419;-80
2022/07/24 07:26:45;;;;;;;10.70;3.50;;;24.90;1.00;;;;;;5055620;28;20457;-80
2022/07/24 07:29:15;;;;;;;8.10;3.60;;;24.90;1.00;;;;;;5048537;28;20225;-80
2022/07/24 07:31:51;;;;;;;4.80;4.07;;;25.00;1.00;;;;;;5052877;28;20910;-80
2022/07/24 07:34:17;;;;;;;4.23;3.83;;;25.10;1.00;;;;;;5040317;28;20420;-80
2022/07/24 07:36:43;;;;;;;3.60;3.27;;;25.10;1.00;;;;;;5047878;28;20461;-79
2022/07/24 07:39:15;;;;;;;3.90;3.57;;;25.20;1.00;;;;;;5052695;28;20240;-80
2022/07/24 07:41:41;;;;;;;4.47;3.70;;;25.30;1.00;;;;;;5053083;28;20246;-79
2022/07/24 07:44:07;;;;;;;5.83;3.13;;;25.30;1.00;;;;;;5047096;28;20468;-80
2022/07/24 07:46:34;;;;;;;4.53;3.70;;;25.40;1.00;;;;;;5052419;28;21604;-79
2022/07/24 07:49:09;;;;;;;5.70;3.80;;;25.60;1.00;;;;;;5054735;28;20170;-79
2022/07/24 07:51:40;;;;;;;5.30;3.77;;;25.70;1.00;;;;;;5050554;28;20899;-80
2022/07/24 07:54:09;;;;;;;8.60;4.03;;;25.80;1.00;;;;;;5042352;28;20435;-80
2022/07/24 07:56:40;;;;;;;4.43;3.47;;;25.90;1.00;;;;;;5054919;28;20940;-79
2022/07/24 07:59:09;;;;;;;3.67;3.30;;;26.00;1.00;;;;;;5053889;28;20429;-80
2022/07/24 08:02:29;;;;;;;3.60;3.30;;;26.00;1.00;;;;;;5048534;28;20428;-79
2022/07/24 08:04:57;;;;;;;4.00;3.60;;;26.20;1.00;;;;;;5047925;28;20792;-80
2022/07/24 08:07:39;;;;;;;3.60;3.30;;;26.40;1.00;;;;;;5052916;28;20965;-79
2022/07/24 08:13:27;;;;;;;4.70;4.07;;;26.60;1.00;;;;;;5047534;28;21000;-85
2022/07/24 08:16:27;;;;;;;4.23;3.70;;;26.60;1.00;;;;;;5050631;28;20427;-86
2022/07/24 08:18:57;;;;;;;4.50;3.70;;;26.60;1.00;;;;;;5050669;28;20438;-77
2022/07/24 08:21:28;;;;;;;7.43;3.70;;;26.60;1.00;;;;;;5053978;28;20936;-77
2022/07/24 08:24:04;;;;;;;6.47;4.07;;;26.80;1.00;;;;;;5040963;28;20437;-76
2022/07/24 08:26:39;;;;;;;4.27;3.73;;;26.80;1.00;;;;;;5054663;28;20446;-75
2022/07/24 08:29:09;;;;;;;7.40;3.57;;;27.00;1.00;;;;;;5044811;28;20488;-75
2022/07/24 08:31:45;;;;;;;5.60;5.07;;;27.00;1.00;;;;;;5053693;28;20991;-74
2022/07/24 08:34:11;;;;;;;4.10;3.70;;;27.10;1.00;;;;;;5042509;28;20411;-74
2022/07/24 08:36:38;;;;;;;4.40;4.00;;;27.20;1.00;;;;;;5053330;28;20436;-75
2022/07/24 08:39:09;;;;;;;6.60;4.13;;;27.40;1.00;;;;;;5054486;28;20181;-75
2022/07/24 08:41:35;;;;;;;4.70;4.10;;;27.40;1.00;;;;;;5053123;28;20430;-75
2022/07/24 08:44:05;;;;;;;4.97;3.60;;;27.40;1.00;;;;;;5053771;28;20407;-75
2022/07/24 08:46:31;;;;;;;10.43;4.00;;;27.60;1.00;;;;;;5050986;28;20675;-75
2022/07/24 08:49:12;;;;;;;3.10;2.90;;;27.60;1.00;;;;;;5039453;28;20453;-75
2022/07/24 08:51:42;;;;;;;4.57;4.13;;;27.70;1.00;;;;;;5045291;28;20468;-74
2022/07/24 08:54:09;;;;;;;6.70;4.07;;;27.80;1.00;;;;;;5040930;28;20916;-75
2022/07/24 08:56:40;;;;;;;6.07;3.80;;;27.90;1.00;;;;;;5046505;28;20926;-74
2022/07/24 08:59:18;;;;;;;4.00;3.67;;;28.00;1.00;;;;;;5046442;28;20497;-74
2022/07/24 09:01:46;;;;;;;3.70;3.40;;;28.10;1.00;;;;;;5042942;28;20950;-74
2022/07/24 09:04:32;;;;;;;6.73;4.33;;;28.20;1.00;;;;;;5038730;28;20535;-74
2022/07/24 09:06:59;;;;;;;4.40;4.00;;;28.30;1.00;;;;;;5053344;28;20457;-75
2022/07/24 09:09:25;;;;;;;5.70;4.27;;;28.30;1.00;;;;;;5048786;28;20459;-75
2022/07/24 09:12:15;;;;;;;7.80;4.00;;;28.50;1.00;;;;;;5048459;28;20425;-75
2022/07/24 09:14:47;;;;;;;4.00;3.60;;;28.60;1.00;;;;;;5041280;28;20428;-75
2022/07/24 09:17:15;;;;;;;4.37;3.60;;;28.60;1.00;;;;;;5052593;28;20421;-74
2022/07/24 09:19:54;;;;;;;4.07;3.43;;;28.80;1.00;;;;;;5053376;28;20428;-74
2022/07/24 09:22:32;;;;;;;4.00;3.43;;;28.90;1.00;;;;;;5049514;28;20959;-74
2022/07/24 09:25:04;;;;;;;5.00;4.10;;;29.20;1.00;;;;;;5053719;28;20409;-74
2022/07/24 09:27:29;;;;;;;4.40;3.70;;;29.20;1.00;;;;;;5053366;28;20455;-74
2022/07/24 09:29:55;;;;;;;4.87;3.93;;;29.40;1.00;;;;;;5053202;28;20424;-74
2022/07/24 09:32:25;;;;;;;5.17;3.80;;;29.50;1.00;;;;;;5053233;28;20181;-75
2022/07/24 09:34:53;;;;;;;4.20;3.57;;;29.60;1.00;;;;;;5053089;28;20256;-75
2022/07/24 09:37:20;;;;;;;6.93;3.80;;;29.70;1.00;;;;;;5045756;28;20434;-75
2022/07/24 09:39:46;;;;;;;5.10;4.00;;;29.70;1.00;;;;;;5041079;28;20448;-75
2022/07/24 09:42:13;;;;;;;4.47;4.07;;;29.80;1.00;;;;;;5052752;28;20432;-74
2022/07/24 09:44:39;;;;;;;7.37;3.90;;;29.90;1.00;;;;;;5052824;28;20422;-74
2022/07/24 09:47:07;;;;;;;4.10;3.40;;;30.00;1.00;;;;;;5051042;28;20457;-75
2022/07/24 09:49:35;;;;;;;4.90;3.70;;;30.20;1.00;;;;;;5053307;28;20447;-75
2022/07/24 09:52:12;;;;;;;3.67;3.37;;;30.30;1.00;;;;;;5053016;28;20429;-74
2022/07/24 09:54:52;;;;;;;4.40;3.90;;;30.40;1.00;;;;;;5048448;28;20513;-76
2022/07/24 09:57:22;;;;;;;5.23;4.17;;;30.50;1.00;;;;;;5045115;28;20437;-76
2022/07/24 10:00:00;;;;;;;4.87;4.20;;;30.60;1.00;;;;;;5051690;28;20990;-76
2022/07/24 10:02:30;;;;;;;6.30;4.17;;;30.60;1.00;;;;;;5045006;28;20431;-76
2022/07/24 10:04:57;;;;;;;4.70;3.80;;;30.60;1.00;;;;;;5040445;28;20427;-76
2022/07/24 10:07:29;;;;;;;4.63;4.17;;;30.80;1.00;;;;;;5053173;28;20461;-77
2022/07/24 10:09:59;;;;;;;5.37;3.87;;;30.80;1.00;;;;;;5047758;28;20485;-76
2022/07/24 10:12:29;;;;;;;6.70;4.60;;;30.90;1.00;;;;;;5056481;28;20870;-77
2022/07/24 10:15:05;;;;;;;4.60;3.60;;;30.80;1.00;;;;;;5054446;28;20425;-77
2022/07/24 10:17:33;;;;;;;4.80;4.30;;;30.90;1.00;;;;;;5056314;28;20425;-77
2022/07/24 10:20:03;;;;;;;5.30;4.27;;;31.00;1.00;;;;;;5052861;28;20437;-77
2022/07/24 10:22:47;;;;;;;5.07;3.97;;;31.00;1.00;;;;;;5043643;28;20414;-77
2022/07/24 10:25:18;;;;;;;4.50;4.10;;;31.00;1.00;;;;;;5057498;28;20444;-75
2022/07/24 10:27:51;;;;;;;4.70;4.30;;;31.10;1.00;;;;;;5047750;28;20549;-77
2022/07/24 10:30:17;;;;;;;4.27;3.97;;;31.10;1.00;;;;;;5050301;28;20483;-75
2022/07/24 10:32:45;;;;;;;5.60;4.23;;;31.20;1.00;;;;;;5046743;28;20402;-74
2022/07/24 10:35:19;;;;;;;4.60;4.20;;;30.90;1.00;;;;;;5039476;28;20791;-74
2022/07/24 10:38:04;;;;;;;8.83;4.90;;;31.00;1.00;;;;;;5046358;28;20434;-73
2022/07/24 10:40:49;;;;;;;6.53;4.57;;;31.10;1.00;;;;;;5049923;28;20935;-77
2022/07/24 10:43:17;;;;;;;9.77;4.53;;;31.10;1.00;;;;;;5053885;28;20517;-81
2022/07/24 10:45:54;;;;;;;5.93;5.00;;;31.30;1.00;;;;;;5054631;28;20473;-78
2022/07/24 10:48:32;;;;;;;7.33;4.87;;;31.40;1.00;;;;;;5051499;28;20414;-77
2022/07/24 10:51:13;;;;;;;5.33;4.67;;;31.70;1.00;;;;;;5049592;28;20848;-77
2022/07/24 10:53:38;;;;;;;5.07;4.60;;;31.80;1.00;;;;;;5045144;28;20885;-77
2022/07/24 10:56:16;;;;;;;5.13;4.60;;;31.80;1.00;;;;;;5054168;28;20437;-78
2022/07/24 10:59:01;;;;;;;5.83;4.90;;;32.00;1.00;;;;;;5054123;28;20555;-76
2022/07/24 11:01:50;;;;;;;6.87;5.43;;;32.20;1.00;;;;;;5046030;28;20513;-78
2022/07/24 11:04:24;;;;;;;5.40;4.80;;;32.40;1.00;;;;;;5041819;28;20450;-80
2022/07/24 11:06:56;;;;;;;7.43;4.70;;;32.50;1.00;;;;;;5046138;28;20462;-78
2022/07/24 11:09:26;;;;;;;6.03;4.77;;;32.60;1.00;;;;;;5043367;28;20431;-78
2022/07/24 11:12:00;;;;;;;6.10;4.90;;;32.40;1.00;;;;;;5047733;28;20415;-75
2022/07/24 11:14:48;;;;;;;5.83;5.03;;;32.60;1.00;;;;;;5043054;28;20414;-76
2022/07/24 11:17:36;;;;;;;7.23;5.20;;;32.60;1.00;;;;;;5053187;28;20499;-75
2022/07/24 11:20:06;;;;;;;5.10;4.60;;;32.70;1.00;;;;;;5062025;28;20474;-76
2022/07/24 11:22:58;;;;;;;5.57;5.07;;;32.80;1.00;;;;;;5056538;28;20414;-77
2022/07/24 11:25:30;;;;;;;6.40;5.07;;;32.90;1.00;;;;;;5052807;28;20929;-76
2022/07/24 11:28:13;;;;;;;6.07;4.63;;;32.90;1.00;;;;;;5055960;28;20789;-76
2022/07/24 11:30:44;;;;;;;10.23;5.13;;;32.90;1.00;;;;;;5039477;28;20443;-77
2022/07/24 11:33:11;;;;;;;6.50;5.20;;;32.90;1.00;;;;;;5042613;28;20434;-77
2022/07/24 11:35:40;;;;;;;5.40;4.90;;;32.80;1.00;;;;;;5055231;28;20461;-76
2022/07/24 11:38:09;;;;;;;8.50;5.10;;;32.90;1.00;;;;;;5055454;28;20423;-75
2022/07/24 11:40:45;;;;;;;5.37;4.73;;;32.90;1.00;;;;;;5054535;28;20442;-76
2022/07/24 11:43:15;;;;;;;7.83;4.57;;;32.90;1.00;;;;;;5042020;28;20889;-76
2022/07/24 11:45:51;;;;;;;5.30;4.80;;;32.90;1.00;;;;;;5046692;28;20422;-76
2022/07/24 11:48:34;;;;;;;6.07;4.90;;;32.90;1.00;;;;;;5052170;28;20416;-76
2022/07/24 11:51:04;;;;;;;4.90;4.37;;;33.20;1.00;;;;;;5055582;28;20421;-76
2022/07/24 11:53:30;;;;;;;6.20;5.00;;;33.40;1.00;;;;;;5042116;28;20416;-76
2022/07/24 11:56:04;;;;;;;6.33;5.73;;;33.60;1.00;;;;;;5054405;28;20450;-76
2022/07/24 11:58:38;;;;;;;5.60;5.00;;;33.40;1.00;;;;;;5046565;28;20490;-76
2022/07/24 12:01:19;;;;;;;5.67;5.17;;;33.20;1.00;;;;;;5043038;28;20422;-76
2022/07/24 12:03:53;;;;;;;8.33;5.17;;;33.40;1.00;;;;;;5046448;28;20509;-76
2022/07/24 12:06:19;;;;;;;5.50;5.10;;;33.40;1.00;;;;;;5048648;28;20459;-76
2022/07/24 12:08:57;;;;;;;5.73;4.93;;;33.40;1.00;;;;;;5042365;28;20431;-76
2022/07/24 12:11:27;;;;;;;7.03;5.70;;;33.40;1.00;;;;;;5043101;28;20410;-76
2022/07/24 12:13:59;;;;;;;10.90;5.77;;;33.20;1.00;;;;;;5043749;28;20504;-76
2022/07/24 12:16:31;;;;;;;5.73;5.00;;;33.20;1.00;;;;;;5054348;28;20418;-76
2022/07/24 12:19:23;;;;;;;6.13;5.00;;;33.30;1.00;;;;;;5037106;28;20426;-76
2022/07/24 12:21:58;;;;;;;5.77;5.17;;;33.40;1.00;;;;;;5049022;28;20426;-77
2022/07/24 12:24:23;;;;;;;5.63;4.97;;;33.20;1.00;;;;;;5053701;28;20436;-76
2022/07/24 12:26:58;;;;;;;5.60;5.10;;;33.20;1.00;;;;;;5053299;28;20454;-76
2022/07/24 12:29:27;;;;;;;5.13;4.60;;;33.40;1.00;;;;;;5044005;28;20179;-76
2022/07/24 12:32:16;;;;;;;5.93;5.20;;;33.50;1.00;;;;;;5054018;28;20947;-76
2022/07/24 12:34:47;;;;;;;5.20;4.70;;;33.70;1.00;;;;;;5050660;28;20442;-76
2022/07/24 12:37:17;;;;;;;5.13;4.70;;;33.80;1.00;;;;;;5041093;28;20756;-76
2022/07/24 12:39:50;;;;;;;12.30;5.77;;;34.00;1.00;;;;;;5039634;28;20498;-77
2022/07/24 12:42:17;;;;;;;5.47;4.90;;;34.30;1.00;;;;;;5041153;28;20781;-76
2022/07/24 12:44:44;;;;;;;4.87;4.47;;;34.30;1.00;;;;;;5048309;28;20430;-77
2022/07/24 12:47:16;;;;;;;5.90;4.90;;;34.30;1.00;;;;;;5046036;28;20965;-76
2022/07/24 12:49:43;;;;;;;13.57;4.77;;;34.50;1.00;;;;;;5045242;28;20449;-76
2022/07/24 12:52:24;;;;;;;4.97;4.47;;;34.70;1.00;;;;;;5049792;28;20408;-76
2022/07/24 12:54:52;;;;;;;5.23;4.73;;;34.90;1.00;;;;;;5044599;28;20505;-75
2022/07/24 12:57:21;;;;;;;6.83;5.10;;;34.50;1.00;;;;;;5044698;28;20434;-75
2022/07/24 13:00:01;;;;;;;9.97;4.97;;;34.30;1.00;;;;;;5046956;28;20449;-76
2022/07/24 13:02:27;;;;;;;6.00;4.83;;;34.30;1.00;;;;;;5047369;28;20438;-76
2022/07/24 13:04:58;;;;;;;5.60;5.10;;;34.20;1.00;;;;;;5046155;28;20426;-76
2022/07/24 13:07:27;;;;;;;5.30;4.90;;;34.20;1.00;;;;;;5047727;28;21023;-77
2022/07/24 13:09:54;;;;;;;9.50;4.90;;;34.10;1.00;;;;;;5037279;28;20419;-77
2022/07/24 13:12:20;;;;;;;6.70;5.03;;;34.20;1.00;;;;;;5048976;28;20516;-74
2022/07/24 13:14:47;;;;;;;5.23;4.53;;;34.30;1.00;;;;;;5053397;28;20414;-75
2022/07/24 13:17:17;;;;;;;5.40;4.87;;;34.30;1.00;;;;;;5053125;28;20413;-74
2022/07/24 13:19:45;;;;;;;5.80;4.30;;;34.40;1.00;;;;;;5053506;28;20526;-75
2022/07/24 13:22:16;;;;;;;5.63;4.80;;;34.50;1.00;;;;;;5037236;28;20446;-75
2022/07/24 13:24:43;;;;;;;5.20;4.67;;;34.70;1.00;;;;;;5044563;28;20513;-74
2022/07/24 13:27:13;;;;;;;5.67;4.60;;;34.60;1.00;;;;;;5042557;28;20462;-76
2022/07/24 13:29:39;;;;;;;9.00;5.13;;;34.50;1.00;;;;;;5055494;28;20422;-76
2022/07/24 13:32:06;;;;;;;6.63;4.90;;;34.70;1.00;;;;;;5055811;28;20813;-76
2022/07/24 13:34:32;;;;;;;5.03;4.40;;;34.80;1.00;;;;;;5043065;28;20981;-76
2022/07/24 13:36:59;;;;;;;4.83;4.33;;;34.90;1.00;;;;;;5049565;28;20459;-76
2022/07/24 13:39:25;;;;;;;6.70;5.00;;;34.90;1.00;;;;;;5042960;28;20839;-75